createdAt,value
2023-04-21T00:00:15.339Z,4.55
2023-04-21T00:02:43.318Z,4.40
2023-04-21T00:05:12.556Z,4.28
2023-04-21T00:07:41.606Z,3.97
2023-04-21T00:10:10.808Z,4.72
2023-04-21T00:12:38.840Z,4.78
2023-04-21T00:15:07.175Z,5.07
2023-04-21T00:17:34.940Z,4.68
2023-04-21T00:20:02.506Z,4.45
2023-04-21T00:22:30.161Z,4.80
2023-04-21T00:24:59.275Z,4.65
2023-04-21T00:27:26.831Z,5.07
2023-04-21T00:29:54.517Z,4.63
2023-04-21T00:32:22.128Z,4.93
2023-04-21T00:34:51.253Z,4.30
2023-04-21T00:37:18.994Z,4.47
2023-04-21T00:39:46.581Z,5.53
2023-04-21T00:42:17.941Z,5.00
2023-04-21T00:44:45.730Z,5.70
2023-04-21T00:47:13.411Z,4.47
2023-04-21T00:49:41.720Z,4.28
2023-04-21T00:52:10.070Z,4.80
2023-04-21T00:54:37.848Z,4.47
2023-04-21T00:57:07.926Z,4.65
2023-04-21T00:59:36.255Z,3.67
2023-04-21T01:02:04.554Z,4.40
2023-04-21T01:04:37.071Z,3.60
2023-04-21T01:07:06.084Z,4.35
2023-04-21T01:09:34.833Z,4.85
2023-04-21T01:12:07.469Z,4.22
2023-04-21T01:14:36.652Z,4.72
2023-04-21T01:17:06.320Z,4.93
2023-04-21T01:19:39.406Z,4.57
2023-04-21T01:22:11.383Z,4.00
2023-04-21T01:24:44.963Z,4.63
2023-04-21T01:27:16.680Z,4.63
2023-04-21T01:29:46.919Z,4.18
2023-04-21T01:32:18.232Z,4.25
2023-04-21T01:34:47.229Z,3.92
2023-04-21T01:37:21.038Z,4.18
2023-04-21T01:39:54.908Z,4.35
2023-04-21T01:42:24.936Z,4.00
2023-04-21T01:44:56.647Z,4.82
2023-04-21T01:47:25.489Z,4.28
2023-04-21T01:49:53.666Z,4.30
2023-04-21T01:52:21.688Z,4.78
2023-04-21T01:54:49.546Z,4.07
2023-04-21T01:57:18.126Z,4.30
2023-04-21T01:59:45.808Z,4.30
2023-04-21T02:02:13.550Z,4.00
2023-04-21T02:04:41.411Z,4.13
2023-04-21T02:07:09.122Z,4.57
2023-04-21T02:09:36.738Z,4.78
2023-04-21T02:12:04.534Z,4.25
2023-04-21T02:14:32.205Z,4.40
2023-04-21T02:17:00.096Z,4.00
2023-04-21T02:19:29.006Z,4.38
2023-04-21T02:21:56.716Z,4.20
2023-04-21T02:24:24.269Z,4.32
2023-04-21T02:26:53.837Z,4.20
2023-04-21T02:29:21.715Z,4.88
2023-04-21T02:32:00.682Z,4.57
2023-04-21T02:34:33.453Z,4.15
2023-04-21T02:37:01.367Z,4.63
2023-04-21T02:39:29.040Z,4.25
2023-04-21T02:41:56.951Z,4.65
2023-04-21T02:44:24.658Z,4.93
2023-04-21T02:46:52.262Z,4.70
2023-04-21T02:49:21.057Z,5.00
2023-04-21T02:51:48.838Z,4.75
2023-04-21T02:54:16.477Z,4.93
2023-04-21T02:56:44.062Z,5.10
2023-04-21T02:59:11.864Z,5.03
2023-04-21T03:01:40.633Z,5.65
2023-04-21T03:04:09.426Z,4.85
2023-04-21T03:06:39.013Z,4.88
2023-04-21T03:09:07.137Z,4.82
2023-04-21T03:11:34.910Z,5.30
2023-04-21T03:14:02.682Z,5.35
2023-04-21T03:16:30.249Z,4.38
2023-04-21T03:18:57.953Z,5.03
2023-04-21T03:21:25.713Z,4.50
2023-04-21T03:23:53.452Z,5.57
2023-04-21T03:26:21.330Z,5.10
2023-04-21T03:28:49.509Z,4.55
2023-04-21T03:31:17.079Z,4.68
2023-04-21T03:33:44.651Z,4.78
2023-04-21T03:36:12.337Z,4.60
2023-04-21T03:38:40.613Z,4.03
2023-04-21T03:41:08.253Z,4.13
2023-04-21T03:43:36.310Z,4.50
2023-04-21T03:46:04.056Z,4.57
2023-04-21T03:48:32.088Z,5.00
2023-04-21T03:50:59.767Z,4.97
2023-04-21T03:53:27.370Z,4.68
2023-04-21T03:55:54.936Z,5.50
2023-04-21T03:58:22.689Z,6.95
2023-04-21T04:00:50.458Z,6.70
2023-04-21T04:03:19.749Z,7.97
2023-04-21T04:05:48.787Z,9.73
2023-04-21T04:08:16.438Z,5.20
2023-04-21T04:10:44.024Z,4.93
2023-04-21T04:13:11.958Z,5.20
2023-04-21T04:15:39.646Z,5.78
2023-04-21T04:18:07.269Z,4.90
2023-04-21T04:20:35.395Z,4.90
2023-04-21T04:23:03.005Z,5.43
2023-04-21T04:25:31.075Z,5.50
2023-04-21T04:27:58.843Z,4.85
2023-04-21T04:30:28.438Z,5.55
2023-04-21T04:32:58.074Z,5.93
2023-04-21T04:35:25.742Z,5.70
2023-04-21T04:37:55.100Z,5.07
2023-04-21T04:40:22.747Z,4.72
2023-04-21T04:42:51.573Z,5.07
2023-04-21T04:45:22.225Z,4.70
2023-04-21T04:47:50.433Z,4.00
2023-04-21T04:50:18.136Z,4.75
2023-04-21T04:52:47.123Z,4.60
2023-04-21T04:55:14.922Z,3.85
2023-04-21T04:57:42.527Z,4.88
2023-04-21T05:00:11.702Z,4.45
2023-04-21T05:02:39.544Z,5.10
2023-04-21T05:05:08.135Z,5.05
2023-04-21T05:07:36.123Z,4.72
2023-04-21T05:10:04.750Z,5.07
2023-04-21T05:12:32.549Z,4.05
2023-04-21T05:15:00.137Z,4.55
2023-04-21T05:17:28.790Z,4.07
2023-04-21T05:19:56.671Z,5.18
2023-04-21T05:22:24.277Z,4.40
2023-04-21T05:24:52.696Z,4.85
2023-04-21T05:27:20.441Z,4.97
2023-04-21T05:29:48.070Z,4.28
2023-04-21T05:32:15.961Z,4.72
2023-04-21T05:34:43.756Z,4.65
2023-04-21T05:37:12.542Z,5.85
2023-04-21T05:39:40.301Z,4.38
2023-04-21T05:42:10.475Z,4.38
2023-04-21T05:44:39.569Z,4.13
2023-04-21T05:47:07.962Z,3.55
2023-04-21T05:49:35.500Z,3.78
2023-04-21T05:52:03.230Z,3.78
2023-04-21T05:54:30.821Z,4.65
2023-04-21T05:56:58.532Z,3.67
2023-04-21T05:59:26.565Z,3.35
2023-04-21T06:01:54.509Z,4.10
2023-04-21T06:04:22.290Z,4.13
2023-04-21T06:06:50.231Z,4.05
2023-04-21T06:09:17.819Z,4.32
2023-04-21T06:11:45.432Z,4.80
2023-04-21T06:14:13.039Z,3.90
2023-04-21T06:16:40.750Z,3.50
2023-04-21T06:19:08.607Z,7.35
2023-04-21T06:21:36.263Z,7.28
2023-04-21T06:24:04.157Z,7.22
2023-04-21T06:26:32.211Z,7.63
2023-04-21T06:28:59.757Z,3.33
2023-04-21T06:31:27.953Z,3.00
2023-04-21T06:33:55.552Z,3.00
2023-04-21T06:36:23.209Z,3.13
2023-04-21T06:38:50.795Z,3.10
2023-04-21T06:41:18.406Z,2.80
2023-04-21T06:43:46.010Z,3.30
2023-04-21T06:46:13.655Z,2.58
2023-04-21T06:48:41.403Z,2.97
2023-04-21T06:51:08.981Z,2.78
2023-04-21T06:53:37.606Z,2.95
2023-04-21T06:56:05.404Z,2.70
2023-04-21T06:58:33.032Z,3.40
2023-04-21T07:01:00.602Z,2.72
2023-04-21T07:03:28.326Z,2.97
2023-04-21T07:05:56.050Z,2.85
2023-04-21T07:08:24.809Z,3.03
2023-04-21T07:10:52.439Z,3.00
2023-04-21T07:13:20.086Z,3.40
2023-04-21T07:15:47.713Z,3.58
2023-04-21T07:18:15.316Z,3.33
2023-04-21T07:20:43.033Z,3.22
2023-04-21T07:23:10.666Z,3.85
2023-04-21T07:25:38.457Z,3.05
2023-04-21T07:28:06.577Z,3.28
2023-04-21T07:30:34.202Z,6.15
2023-04-21T07:33:01.895Z,3.55
2023-04-21T07:35:29.566Z,3.03
2023-04-21T07:37:57.144Z,3.70
2023-04-21T07:40:24.793Z,4.03
2023-04-21T07:42:52.658Z,3.53
2023-04-21T07:45:20.461Z,3.90
2023-04-21T07:47:48.061Z,3.30
2023-04-21T07:50:16.274Z,3.55
2023-04-21T07:52:43.798Z,3.38
2023-04-21T07:55:11.352Z,3.33
2023-04-21T07:57:40.207Z,3.42
2023-04-21T08:00:09.403Z,2.72
2023-04-21T08:02:40.168Z,3.28
2023-04-21T08:05:08.288Z,2.50
2023-04-21T08:07:36.187Z,2.95
2023-04-21T08:10:04.169Z,3.00
2023-04-21T08:12:31.781Z,3.15
2023-04-21T08:14:59.416Z,2.70
2023-04-21T08:17:27.082Z,3.38
2023-04-21T08:19:54.721Z,3.08
2023-04-21T08:22:23.037Z,2.75
2023-04-21T08:24:50.619Z,3.38
2023-04-21T08:27:18.280Z,2.80
2023-04-21T08:29:46.030Z,3.08
2023-04-21T08:32:13.945Z,3.50
2023-04-21T08:34:41.597Z,3.75
2023-04-21T08:37:09.250Z,3.40
2023-04-21T08:39:36.812Z,2.90
2023-04-21T08:42:04.924Z,3.53
2023-04-21T08:44:32.652Z,2.83
2023-04-21T08:47:01.478Z,3.58
2023-04-21T08:49:31.582Z,3.08
2023-04-21T08:52:00.969Z,2.83
2023-04-21T08:54:29.966Z,2.88
2023-04-21T08:57:04.812Z,2.40
2023-04-21T08:59:39.762Z,2.70
2023-04-21T09:02:19.060Z,2.08
2023-04-21T09:04:49.106Z,2.22
2023-04-21T09:07:39.206Z,2.67
2023-04-21T09:10:07.391Z,3.28
2023-04-21T09:12:34.967Z,2.47
2023-04-21T09:15:06.213Z,2.65
2023-04-21T09:17:34.203Z,2.47
2023-04-21T09:20:19.071Z,2.35
2023-04-21T09:22:49.805Z,2.38
2023-04-21T09:25:20.382Z,2.45
2023-04-21T09:27:48.162Z,2.33
2023-04-21T09:30:20.156Z,2.80
2023-04-21T09:32:47.872Z,2.72
2023-04-21T09:35:15.659Z,2.35
2023-04-21T09:37:46.411Z,2.83
2023-04-21T09:40:17.975Z,2.85
2023-04-21T09:42:46.937Z,2.40
2023-04-21T09:47:51.354Z,2.83
2023-04-21T09:53:03.924Z,3.65
2023-04-21T09:55:33.374Z,2.85
2023-04-21T09:58:02.652Z,3.42
2023-04-21T10:00:31.323Z,3.83
2023-04-21T10:03:04.713Z,2.70
2023-04-21T10:05:32.550Z,2.50
2023-04-21T10:08:00.294Z,2.50
2023-04-21T10:10:47.384Z,2.90
2023-04-21T10:13:18.611Z,2.78
2023-04-21T10:15:46.392Z,2.40
2023-04-21T10:18:17.270Z,2.50
2023-04-21T10:21:01.616Z,1.98
2023-04-21T10:23:43.282Z,2.78
2023-04-21T10:26:26.194Z,2.85
2023-04-21T10:28:56.700Z,3.17
2023-04-21T10:31:51.374Z,2.17
2023-04-21T10:34:21.755Z,2.17
2023-04-21T10:36:56.643Z,2.20
2023-04-21T10:39:35.791Z,2.63
2023-04-21T10:42:38.750Z,2.90
2023-04-21T10:45:10.133Z,1.80
2023-04-21T10:47:44.401Z,2.53
2023-04-21T10:50:14.753Z,2.53
2023-04-21T10:52:47.514Z,2.63
2023-04-21T10:55:17.040Z,2.42
2023-04-21T10:57:45.515Z,2.00
2023-04-21T11:00:18.761Z,2.40
2023-04-21T11:02:58.133Z,2.47
2023-04-21T11:05:44.007Z,2.67
2023-04-21T11:08:14.632Z,2.20
2023-04-21T11:10:43.171Z,2.05
2023-04-21T11:13:11.421Z,2.35
2023-04-21T11:15:39.002Z,2.50
2023-04-21T11:18:08.729Z,2.22
2023-04-21T11:20:41.860Z,2.65
2023-04-21T11:23:09.412Z,2.22
2023-04-21T11:25:37.091Z,2.53
2023-04-21T11:28:05.231Z,2.63
2023-04-21T11:30:37.066Z,2.72
2023-04-21T11:33:04.786Z,2.72
2023-04-21T11:35:32.712Z,3.00
2023-04-21T11:38:07.583Z,2.58
2023-04-21T11:40:48.440Z,2.60
2023-04-21T11:43:16.220Z,2.92
2023-04-21T11:45:43.831Z,2.70
2023-04-21T11:48:16.904Z,2.80
2023-04-21T11:50:49.609Z,2.97
2023-04-21T11:53:17.405Z,2.97
2023-04-21T11:55:46.617Z,2.55
2023-04-21T11:58:16.444Z,2.30
2023-04-21T12:00:46.911Z,2.22
2023-04-21T12:03:14.624Z,2.70
2023-04-21T12:05:42.393Z,2.25
2023-04-21T12:08:16.558Z,2.42
2023-04-21T12:10:48.786Z,2.50
2023-04-21T12:13:23.959Z,2.92
2023-04-21T12:15:51.619Z,1.95
2023-04-21T12:18:19.304Z,2.00
2023-04-21T12:20:51.762Z,2.03
2023-04-21T12:23:19.777Z,1.70
2023-04-21T12:25:47.429Z,1.67
2023-04-21T12:28:17.487Z,1.58
2023-04-21T12:30:45.260Z,1.55
2023-04-21T12:33:13.243Z,1.73
2023-04-21T12:35:41.086Z,1.33
2023-04-21T12:38:09.534Z,1.65
2023-04-21T12:40:37.131Z,1.40
2023-04-21T12:43:04.734Z,1.42
2023-04-21T12:45:32.725Z,1.73
2023-04-21T12:48:00.942Z,1.80
2023-04-21T12:50:28.665Z,1.67
2023-04-21T12:52:56.347Z,1.50
2023-04-21T12:55:24.491Z,2.08
2023-04-21T12:57:52.920Z,1.90
2023-04-21T13:00:20.649Z,1.83
2023-04-21T13:02:48.442Z,1.67
2023-04-21T13:05:16.657Z,1.70
2023-04-21T13:07:44.269Z,1.60
2023-04-21T13:10:11.918Z,1.33
2023-04-21T13:12:39.702Z,1.63
2023-04-21T13:15:07.910Z,1.92
2023-04-21T13:17:35.603Z,1.50
2023-04-21T13:20:04.772Z,2.10
2023-04-21T13:22:35.628Z,1.50
2023-04-21T13:25:04.634Z,1.50
2023-04-21T13:27:33.695Z,2.08
2023-04-21T13:30:01.332Z,2.10
2023-04-21T13:32:29.099Z,1.95
2023-04-21T13:34:58.143Z,1.40
2023-04-21T13:37:26.086Z,2.65
2023-04-21T13:39:53.972Z,1.75
2023-04-21T13:42:21.637Z,1.88
2023-04-21T13:44:49.233Z,2.08
2023-04-21T13:47:17.203Z,1.60
2023-04-21T13:49:44.837Z,1.60
2023-04-21T13:52:12.523Z,2.05
2023-04-21T13:54:40.182Z,1.63
2023-04-21T13:57:07.870Z,1.75
2023-04-21T13:59:35.599Z,1.60
2023-04-21T14:02:03.249Z,3.40
2023-04-21T14:04:31.274Z,3.08
2023-04-21T14:06:59.144Z,1.63
2023-04-21T14:09:26.731Z,1.77
2023-04-21T14:11:54.488Z,1.50
2023-04-21T14:14:35.526Z,1.95
2023-04-21T14:17:05.264Z,1.83
2023-04-21T14:19:33.102Z,2.00
2023-04-21T14:22:00.907Z,2.22
2023-04-21T14:24:30.173Z,2.20
2023-04-21T14:26:57.992Z,2.10
2023-04-21T14:29:25.872Z,2.55
2023-04-21T14:31:57.758Z,2.20
2023-04-21T14:34:28.355Z,1.85
2023-04-21T14:36:56.501Z,1.80
2023-04-21T14:39:24.215Z,1.98
2023-04-21T14:41:51.853Z,2.20
2023-04-21T14:44:19.415Z,1.90
2023-04-21T14:46:53.732Z,1.75
2023-04-21T14:49:29.048Z,2.78
2023-04-21T14:51:56.731Z,1.67
2023-04-21T14:54:24.349Z,1.70
2023-04-21T14:56:54.600Z,1.73
2023-04-21T14:59:28.210Z,1.58
2023-04-21T15:01:56.525Z,1.45
2023-04-21T15:04:24.327Z,1.63
2023-04-21T15:06:52.308Z,1.63
2023-04-21T15:09:20.144Z,1.40
2023-04-21T15:11:47.752Z,1.23
2023-04-21T15:14:15.381Z,2.05
2023-04-21T15:16:42.973Z,1.42
2023-04-21T15:19:11.120Z,1.65
2023-04-21T15:21:38.853Z,1.75
2023-04-21T15:24:06.650Z,1.90
2023-04-21T15:26:34.230Z,1.45
2023-04-21T15:29:01.901Z,1.60
2023-04-21T15:31:29.830Z,1.50
2023-04-21T15:33:57.942Z,1.30
2023-04-21T15:36:25.563Z,2.17
2023-04-21T15:38:53.102Z,1.65
2023-04-21T15:41:20.808Z,1.70
2023-04-21T15:43:48.651Z,1.95
2023-04-21T15:46:16.262Z,1.48
2023-04-21T15:48:44.114Z,1.60
2023-04-21T15:51:13.394Z,1.60
2023-04-21T15:53:47.689Z,1.60
2023-04-21T15:56:16.728Z,1.52
2023-04-21T15:58:44.517Z,1.10
2023-04-21T16:01:12.511Z,1.73
2023-04-21T16:03:40.569Z,3.17
2023-04-21T16:06:08.464Z,4.00
2023-04-21T16:08:36.224Z,2.42
2023-04-21T16:11:03.974Z,2.90
2023-04-21T16:13:31.689Z,4.05
2023-04-21T16:15:59.383Z,1.40
2023-04-21T16:18:27.217Z,2.13
2023-04-21T16:20:55.054Z,1.60
2023-04-21T16:23:24.611Z,1.83
2023-04-21T16:25:52.392Z,1.42
2023-04-21T16:28:19.952Z,1.75
2023-04-21T16:30:48.370Z,1.88
2023-04-21T16:33:16.476Z,2.25
2023-04-21T16:35:44.387Z,1.80
2023-04-21T16:38:12.047Z,1.45
2023-04-21T16:40:39.699Z,2.30
2023-04-21T16:43:07.271Z,1.85
2023-04-21T16:45:34.836Z,1.42
2023-04-21T16:48:02.810Z,2.03
2023-04-21T16:50:30.874Z,1.45
2023-04-21T16:52:58.736Z,2.03
2023-04-21T16:55:26.458Z,1.52
2023-04-21T16:57:54.074Z,1.52
2023-04-21T17:00:21.816Z,1.63
2023-04-21T17:02:49.489Z,1.80
2023-04-21T17:05:17.360Z,2.08
2023-04-21T17:07:45.154Z,2.05
2023-04-21T17:10:12.801Z,2.00
2023-04-21T17:12:41.727Z,1.75
2023-04-21T17:15:09.998Z,1.73
2023-04-21T17:17:43.140Z,2.13
2023-04-21T17:20:13.305Z,1.52
2023-04-21T17:22:41.905Z,1.55
2023-04-21T17:25:10.043Z,1.73
2023-04-21T17:27:38.691Z,1.88
2023-04-21T17:30:07.807Z,1.73
2023-04-21T17:32:36.741Z,1.75
2023-04-21T17:35:05.789Z,1.80
2023-04-21T17:37:34.471Z,1.80
2023-04-21T17:40:03.002Z,2.00
2023-04-21T17:42:31.556Z,1.60
2023-04-21T17:44:59.411Z,1.77
2023-04-21T17:47:27.307Z,1.67
2023-04-21T17:49:55.309Z,1.58
2023-04-21T17:52:22.858Z,1.60
2023-04-21T17:54:50.598Z,1.83
2023-04-21T17:57:18.782Z,2.30
2023-04-21T17:59:47.598Z,1.80
2023-04-21T18:02:15.383Z,2.13
2023-04-21T18:04:43.654Z,2.47
2023-04-21T18:07:11.811Z,1.92
2023-04-21T18:09:39.923Z,1.98
2023-04-21T18:12:07.686Z,1.60
2023-04-21T18:14:36.210Z,1.60
2023-04-21T18:17:04.060Z,1.42
2023-04-21T18:19:31.728Z,1.52
2023-04-21T18:21:59.338Z,1.50
2023-04-21T18:24:27.390Z,1.38
2023-04-21T18:26:55.211Z,1.63
2023-04-21T18:29:22.833Z,1.60
2023-04-21T18:31:50.564Z,1.50
2023-04-21T18:34:18.461Z,1.65
2023-04-21T18:36:46.108Z,1.70
2023-04-21T18:39:13.756Z,1.85
2023-04-21T18:41:41.929Z,2.10
2023-04-21T18:44:09.512Z,2.50
2023-04-21T18:46:37.165Z,2.97
2023-04-21T18:49:05.751Z,2.60
2023-04-21T18:51:33.421Z,2.70
2023-04-21T18:54:01.066Z,2.83
2023-04-21T18:56:28.835Z,2.10
2023-04-21T18:58:56.740Z,2.50
2023-04-21T19:01:24.378Z,1.98
2023-04-21T19:03:52.370Z,2.03
2023-04-21T19:06:20.114Z,1.90
2023-04-21T19:08:51.080Z,2.13
2023-04-21T19:11:18.813Z,1.92
2023-04-21T19:13:48.210Z,1.90
2023-04-21T19:16:16.705Z,2.50
2023-04-21T19:18:44.471Z,1.73
2023-04-21T19:21:13.662Z,2.17
2023-04-21T19:23:41.893Z,1.85
2023-04-21T19:26:11.877Z,1.55
2023-04-21T19:28:41.113Z,1.70
2023-04-21T19:31:09.568Z,1.83
2023-04-21T19:33:37.118Z,2.20
2023-04-21T19:36:04.887Z,2.05
2023-04-21T19:38:33.589Z,1.70
2023-04-21T19:41:01.197Z,2.00
2023-04-21T19:43:28.862Z,2.22
2023-04-21T19:45:58.439Z,1.90
2023-04-21T19:48:29.716Z,1.88
2023-04-21T19:50:57.345Z,2.00
2023-04-21T19:53:25.036Z,1.55
2023-04-21T19:55:52.979Z,2.20
2023-04-21T19:58:38.292Z,1.90
2023-04-21T20:01:06.948Z,1.95
2023-04-21T20:03:34.709Z,2.13
2023-04-21T20:06:04.858Z,2.13
2023-04-21T20:08:32.671Z,2.28
2023-04-21T20:11:01.488Z,1.77
2023-04-21T20:13:29.105Z,2.38
2023-04-21T20:15:57.374Z,1.90
2023-04-21T20:18:25.121Z,1.92
2023-04-21T20:20:52.891Z,2.00
2023-04-21T20:23:20.756Z,1.95
2023-04-21T20:25:48.296Z,1.90
2023-04-21T20:28:17.036Z,1.77
2023-04-21T20:30:44.595Z,3.35
2023-04-21T20:33:12.377Z,3.65
2023-04-21T20:35:44.124Z,2.70
2023-04-21T20:38:11.858Z,2.63
2023-04-21T20:40:39.594Z,2.60
2023-04-21T20:43:07.724Z,1.73
2023-04-21T20:45:35.305Z,2.47
2023-04-21T20:48:02.898Z,2.00
2023-04-21T20:50:31.624Z,2.20
2023-04-21T20:52:59.475Z,2.72
2023-04-21T20:55:27.025Z,2.58
2023-04-21T20:57:54.569Z,2.90
2023-04-21T21:00:22.787Z,2.90
2023-04-21T21:02:50.557Z,6.22
2023-04-21T21:05:18.316Z,5.22
2023-04-21T21:07:45.940Z,3.50
2023-04-21T21:10:14.515Z,4.47
2023-04-21T21:12:44.394Z,4.43
2023-04-21T21:15:13.791Z,4.20
2023-04-21T21:17:41.770Z,5.43
2023-04-21T21:20:10.221Z,4.43
2023-04-21T21:22:37.889Z,4.75
2023-04-21T21:25:05.929Z,3.70
2023-04-21T21:27:33.495Z,4.00
2023-04-21T21:30:01.072Z,3.75
2023-04-21T21:32:28.797Z,2.78
2023-04-21T21:34:56.370Z,3.25
2023-04-21T21:37:24.501Z,2.25
2023-04-21T21:39:52.697Z,2.50
2023-04-21T21:42:20.295Z,2.67
2023-04-21T21:44:47.915Z,2.33
2023-04-21T21:47:15.514Z,2.85
2023-04-21T21:49:43.398Z,2.22
2023-04-21T21:52:11.084Z,2.47
2023-04-21T21:54:38.620Z,2.33
2023-04-21T21:57:06.235Z,2.33
2023-04-21T21:59:33.942Z,2.53
2023-04-21T22:02:01.840Z,2.20
2023-04-21T22:04:29.646Z,2.25
2023-04-21T22:06:57.998Z,1.73
2023-04-21T22:09:25.557Z,2.33
2023-04-21T22:11:53.233Z,1.95
2023-04-21T22:14:23.190Z,2.40
2023-04-21T22:16:52.861Z,2.35
2023-04-21T22:19:21.888Z,2.25
2023-04-21T22:21:49.603Z,2.40
2023-04-21T22:24:18.881Z,2.40
2023-04-21T22:26:47.595Z,2.63
2023-04-21T22:29:15.281Z,2.20
2023-04-21T22:31:42.983Z,2.30
2023-04-21T22:34:10.661Z,2.20
2023-04-21T22:36:38.211Z,2.67
2023-04-21T22:39:06.242Z,2.40
2023-04-21T22:41:33.873Z,1.90
2023-04-21T22:44:01.415Z,2.28
2023-04-21T22:46:32.186Z,2.63
2023-04-21T22:49:02.324Z,1.90
2023-04-21T22:51:32.434Z,2.50
2023-04-21T22:54:00.640Z,2.17
2023-04-21T22:56:29.734Z,2.60
2023-04-21T22:58:57.809Z,2.65
2023-04-21T23:01:25.456Z,1.88
2023-04-21T23:03:53.296Z,2.22
2023-04-21T23:06:21.028Z,2.58
2023-04-21T23:08:48.577Z,2.28
2023-04-21T23:11:16.213Z,2.30
2023-04-21T23:13:43.817Z,1.92
2023-04-21T23:16:11.497Z,2.42
2023-04-21T23:18:39.102Z,2.60
2023-04-21T23:21:06.711Z,2.13
2023-04-21T23:23:34.252Z,2.53
2023-04-21T23:26:01.883Z,2.22
2023-04-21T23:28:29.449Z,1.90
2023-04-21T23:30:57.221Z,2.35
2023-04-21T23:33:24.803Z,2.28
2023-04-21T23:35:52.505Z,2.97
2023-04-21T23:38:20.094Z,3.42
2023-04-21T23:40:47.587Z,3.70
2023-04-21T23:43:15.162Z,4.30
2023-04-21T23:45:42.733Z,2.35
2023-04-21T23:48:10.325Z,2.70
2023-04-21T23:50:37.940Z,2.45
2023-04-21T23:53:05.681Z,2.20
2023-04-21T23:55:33.309Z,2.33
2023-04-21T23:58:00.867Z,3.10
